Time;durP1;ratioP1;P1;durP2;ratioP2;P2;SDS_P1;SDS_P2;PMS_P1;PMS_P2;Temp;Humidity;BMP_temperature;BMP_pressure;BME280_temperature;BME280_humidity;BME280_pressure;Samples;Min_cycle;Max_cycle;Signal;HPM_P1;HPM_P2
2024/01/18 00:11:39;;;;;;;26.50;15.55;;;;;;;2.12;72.21;97279.97;32138822;27;42679;-68
2024/01/18 00:26:39;;;;;;;26.23;13.93;;;;;;;2.16;72.22;97275.97;32137334;27;41685;-67
2024/01/18 00:41:39;;;;;;;27.45;15.63;;;;;;;2.25;72.61;97303.75;32137086;27;20055;-65
2024/01/18 00:56:39;;;;;;;24.98;13.68;;;;;;;2.38;72.77;97310.94;32133637;27;41382;-65
2024/01/18 01:11:41;;;;;;;25.27;14.70;;;;;;;2.29;72.79;97331.25;32133608;27;20054;-64
2024/01/18 01:26:41;;;;;;;28.48;16.33;;;;;;;2.40;72.84;97340.44;32131286;27;41791;-67
2024/01/18 01:41:42;;;;;;;17.77;10.00;;;;;;;2.70;73.23;97340.31;32129325;27;42845;-67
2024/01/18 01:56:45;;;;;;;21.83;11.38;;;;;;;2.83;73.33;97361.44;32129532;27;20046;-67
2024/01/18 02:11:46;;;;;;;15.57;8.52;;;;;;;2.94;73.29;97362.75;32145609;27;20023;-67
2024/01/18 02:26:46;;;;;;;14.45;9.13;;;;;;;2.87;73.05;97383.75;32150397;27;20050;-68
2024/01/18 02:41:47;;;;;;;19.58;9.52;;;;;;;2.87;73.12;97388.16;32149086;27;20129;-67
2024/01/18 02:56:47;;;;;;;14.60;10.10;;;;;;;2.71;73.46;97405.84;32147338;27;20064;-67
2024/01/18 03:11:47;;;;;;;15.88;8.88;;;;;;;2.57;73.62;97396.22;32145165;27;41276;-66
2024/01/18 03:26:47;;;;;;;14.30;9.43;;;;;;;2.45;73.76;97430.03;32142925;27;42866;-68
2024/01/18 03:41:48;;;;;;;15.95;10.05;;;;;;;2.25;73.61;97448.22;32142286;27;34846;-66
2024/01/18 03:56:48;;;;;;;19.25;11.70;;;;;;;2.11;73.79;97488.47;32139067;27;42909;-67
2024/01/18 04:11:49;;;;;;;16.05;10.57;;;;;;;1.90;74.14;97513.63;32136636;27;41489;-64
2024/01/18 04:26:49;;;;;;;17.20;11.45;;;;;;;1.71;74.09;97525.47;32134570;27;20039;-67
2024/01/18 04:41:50;;;;;;;18.80;12.30;;;;;;;1.61;74.72;97556.41;32133505;27;20047;-65
2024/01/18 04:56:50;;;;;;;20.50;12.23;;;;;;;1.51;74.41;97567.16;32130678;27;41664;-66
2024/01/18 05:11:51;;;;;;;19.13;11.68;;;;;;;1.33;74.98;97606.81;32131795;27;20076;-66
2024/01/18 05:26:52;;;;;;;18.73;12.15;;;;;;;1.21;74.82;97635.22;32129664;27;20033;-66
2024/01/18 05:41:52;;;;;;;18.42;11.65;;;;;;;1.11;75.26;97673.97;32127596;27;20155;-67
2024/01/18 05:56:52;;;;;;;22.48;13.05;;;;;;;0.96;75.16;97679.13;32122916;27;40712;-64
2024/01/18 06:11:52;;;;;;;22.45;13.27;;;;;;;0.83;75.05;97690.97;32122500;27;41754;-66
2024/01/18 06:26:53;;;;;;;27.15;14.55;;;;;;;0.77;75.10;97732.75;32124266;27;20137;-65
2024/01/18 06:41:53;;;;;;;29.80;15.63;;;;;;;0.62;75.86;97749.16;32118901;27;36973;-65
2024/01/18 06:56:53;;;;;;;28.27;15.70;;;;;;;0.64;75.47;97770.78;32134397;27;41350;-61
2024/01/18 07:11:54;;;;;;;22.65;15.23;;;;;;;0.49;75.29;97785.53;32142465;27;20031;-65
2024/01/18 07:26:54;;;;;;;26.85;17.75;;;;;;;0.44;75.54;97804.38;32138563;27;44403;-66
2024/01/18 07:41:54;;;;;;;29.77;16.45;;;;;;;0.56;75.81;97798.78;32138015;27;41603;-65
2024/01/18 07:56:55;;;;;;;30.92;17.10;;;;;;;0.48;75.17;97824.00;32137569;27;20088;-61
2024/01/18 08:11:55;;;;;;;27.17;15.07;;;;;;;0.54;75.09;97856.59;32134728;27;21191;-64
2024/01/18 08:26:55;;;;;;;33.53;19.95;;;;;;;0.78;75.18;97855.78;32131074;27;38991;-62
2024/01/18 08:41:59;;;;;;;32.08;17.60;;;;;;;0.92;75.22;97882.31;32127748;27;41708;-62
2024/01/18 08:56:59;;;;;;;30.10;16.95;;;;;;;0.96;74.64;97900.16;32128540;27;20027;-65
2024/01/18 09:11:59;;;;;;;26.67;16.08;;;;;;;1.03;74.47;97913.41;32127279;27;21752;-66
2024/01/18 09:26:59;;;;;;;27.83;15.07;;;;;;;1.30;74.26;97938.47;32124027;27;40510;-62
2024/01/18 09:42:03;;;;;;;28.02;15.52;;;;;;;1.34;73.93;97955.53;32127385;27;20440;-66
2024/01/18 09:57:08;;;;;;;29.40;16.40;;;;;;;1.27;73.78;97959.81;32126534;27;20031;-66
2024/01/18 10:12:08;;;;;;;30.08;16.73;;;;;;;1.28;73.73;97960.59;32125304;27;20026;-64
2024/01/18 10:27:09;;;;;;;30.98;17.50;;;;;;;1.69;73.48;97974.50;32130116;27;20038;-65
2024/01/18 10:42:10;;;;;;;38.50;17.88;;;;;;;1.72;73.33;97993.50;32140744;27;42839;-65
2024/01/18 10:57:12;;;;;;;31.75;16.65;;;;;;;1.77;73.05;97965.75;32143470;27;20038;-66
2024/01/18 11:12:13;;;;;;;33.60;17.75;;;;;;;1.67;73.08;97981.69;32139929;27;20058;-63
2024/01/18 11:27:21;;;;;;;36.60;20.35;;;;;;;2.14;72.51;97987.94;32140362;27;20033;-63
2024/01/18 11:42:30;;;;;;;37.00;19.90;;;;;;;1.96;72.25;97988.19;32138772;27;20109;-65
2024/01/18 11:57:32;;;;;;;41.75;20.90;;;;;;;1.86;71.94;98003.31;32137159;27;20139;-65
2024/01/18 12:12:32;;;;;;;37.08;19.38;;;;;;;1.69;72.02;97986.78;32136021;27;20502;-65
2024/01/18 12:27:33;;;;;;;34.15;18.67;;;;;;;1.72;71.96;98025.00;32133560;27;20031;-64
2024/01/18 12:42:33;;;;;;;33.17;19.40;;;;;;;1.44;71.93;98020.13;32112079;27;20057;-68
2024/01/18 12:57:34;;;;;;;31.38;18.33;;;;;;;1.45;71.61;98017.34;32128543;27;20034;-66
2024/01/18 13:12:35;;;;;;;34.42;17.20;;;;;;;1.45;71.69;98034.84;32129864;27;20054;-66
2024/01/18 13:27:35;;;;;;;33.33;19.10;;;;;;;1.34;71.17;98046.53;32127647;27;33852;-63
2024/01/18 13:42:35;;;;;;;36.33;19.67;;;;;;;1.13;71.64;98089.75;32127596;27;20051;-66
2024/01/18 13:57:36;;;;;;;37.88;20.33;;;;;;;0.86;71.64;98096.09;32126783;27;41767;-64
2024/01/18 14:12:36;;;;;;;36.88;20.58;;;;;;;0.58;71.79;98138.25;32128489;27;20023;-64
2024/01/18 14:27:37;;;;;;;24.30;13.30;;;;;;;0.20;71.67;98174.38;32143169;27;41491;-65
2024/01/18 14:42:38;;;;;;;25.10;14.65;;;;;;;-0.10;72.26;98200.03;32143999;27;20356;-67
2024/01/18 14:57:38;;;;;;;24.77;13.50;;;;;;;-0.29;72.25;98228.97;32142203;27;20124;-63
2024/01/18 15:12:38;;;;;;;24.13;14.27;;;;;;;-0.48;72.57;98254.28;32138382;27;41244;-66
2024/01/18 15:27:38;;;;;;;22.33;13.98;;;;;;;-0.69;72.93;98286.75;32140382;27;27757;-64
2024/01/18 15:42:39;;;;;;;21.05;12.00;;;;;;;-0.78;73.43;98355.63;32136420;27;20070;-62
2024/01/18 15:57:39;;;;;;;21.13;12.27;;;;;;;-0.83;73.20;98362.22;32121553;27;20039;-64
2024/01/18 16:12:40;;;;;;;24.73;12.93;;;;;;;-0.91;73.12;98387.28;32131608;27;20050;-63
2024/01/18 16:27:40;;;;;;;19.30;11.23;;;;;;;-0.86;73.12;98418.25;32131768;27;20099;-62
2024/01/18 16:42:41;;;;;;;18.88;11.63;;;;;;;-0.93;73.62;98449.34;32118649;27;42896;-65
2024/01/18 16:57:49;;;;;;;18.40;10.32;;;;;;;-0.96;73.85;98472.31;31844508;27;20832;-64
2024/01/18 17:12:50;;;;;;;18.17;10.90;;;;;;;-1.04;74.02;98517.44;31713793;28;32608;-64
2024/01/18 17:27:50;;;;;;;20.85;11.45;;;;;;;-1.05;73.96;98548.00;31713160;27;20036;-63
2024/01/18 17:42:51;;;;;;;22.83;11.65;;;;;;;-1.05;74.36;98553.22;31711034;27;20085;-64
2024/01/18 17:57:51;;;;;;;21.80;11.40;;;;;;;-1.12;74.53;98588.72;31687941;28;20029;-62
2024/01/18 18:12:51;;;;;;;20.60;10.88;;;;;;;-1.13;74.57;98612.38;31619039;28;40775;-66
2024/01/18 18:27:52;;;;;;;22.40;12.35;;;;;;;-1.21;74.34;98645.19;31618365;28;41598;-67
2024/01/18 18:42:52;;;;;;;27.85;15.02;;;;;;;-1.17;74.73;98700.66;31622619;28;40967;-63
2024/01/18 18:57:52;;;;;;;27.20;14.48;;;;;;;-1.18;74.59;98717.28;31621133;28;20536;-64
2024/01/18 19:12:54;;;;;;;23.55;13.73;;;;;;;-1.19;74.79;98757.44;31618836;28;29945;-63
2024/01/18 19:27:54;;;;;;;27.30;13.77;;;;;;;-1.24;74.88;98788.38;31618133;28;20124;-63
2024/01/18 19:42:54;;;;;;;24.98;14.25;;;;;;;-1.24;74.91;98817.94;31614157;28;41636;-64
2024/01/18 19:57:56;;;;;;;27.08;15.27;;;;;;;-1.15;75.10;98871.19;31614159;28;27212;-63
2024/01/18 20:12:56;;;;;;;26.95;16.48;;;;;;;-1.23;74.80;98887.53;31618145;28;20078;-64
2024/01/18 20:27:57;;;;;;;24.25;13.18;;;;;;;-1.23;75.42;98911.06;31614503;28;41621;-65
2024/01/18 20:42:57;;;;;;;21.98;12.40;;;;;;;-1.28;75.36;98965.47;31613947;28;20978;-64
2024/01/18 20:57:57;;;;;;;24.48;14.18;;;;;;;-1.38;75.04;99001.13;31615255;28;22685;-66
2024/01/18 21:12:58;;;;;;;26.63;14.63;;;;;;;-1.39;74.98;99018.59;31614037;28;20461;-65
2024/01/18 21:27:58;;;;;;;28.58;14.48;;;;;;;-1.40;75.25;99043.03;31612531;28;20040;-63
2024/01/18 21:42:58;;;;;;;25.10;13.00;;;;;;;-1.41;75.41;99072.75;31631651;28;20108;-62
2024/01/18 21:57:59;;;;;;;28.98;16.40;;;;;;;-1.58;75.50;99109.81;31632369;28;20068;-65
2024/01/18 22:12:59;;;;;;;33.90;15.98;;;;;;;-1.78;75.43;99130.44;31630839;28;20116;-67
2024/01/18 22:27:59;;;;;;;34.17;16.65;;;;;;;-2.13;75.80;99157.44;31628758;28;41717;-68
2024/01/18 22:42:59;;;;;;;25.88;14.70;;;;;;;-2.23;75.55;99198.19;31627879;28;43783;-63
2024/01/18 22:58:00;;;;;;;22.90;14.18;;;;;;;-2.38;76.08;99229.69;31628428;28;41743;-68
2024/01/18 23:13:01;;;;;;;21.58;12.63;;;;;;;-2.35;76.19;99259.09;31627703;28;20032;-62
2024/01/18 23:28:02;;;;;;;21.92;11.13;;;;;;;-2.26;76.09;99292.38;31624872;28;20048;-67
2024/01/18 23:43:02;;;;;;;19.80;10.98;;;;;;;-2.25;75.85;99313.13;31623109;28;20040;-64
2024/01/18 23:58:03;;;;;;;19.58;9.10;;;;;;;-2.21;76.01;99337.22;31621770;28;20075;-64
